Milo, Canada
Current Conditions -  °F | °C
As of 12:00 AM on Saturday 29 Nov 2014 (Local Time) from CYYC Reporting Station
Light Snow Light Snow  
Wind Chill: -33°   Ceiling: 1200
Heat Index: -9°   Visibility: 1.7mi
Dew Point: -17°   Wind: 17mph
Humidity: 71%   Direction: 350°N
Pressure: 29.7"   Gusts: 28mph
Location:  50.57°N, 112.88°W
Report Text: CYYC 290700Z 35015G24KT 1 3/4SM -SN VV012 M23/M27 A2970 RMK SN8 SLP163
Loading
Personal Weather Stations






























Interactive Weather Map New forecast layout! Learn more

10-Day Weather Forecast

Advertisements
Track Severe Weather on mobile